Impacts TAF Board INFO
FOR SITUATIONAL AWARENESS. NOT TO BE USED FOR FLIGHT PLANNING PURPOSES.
IDs:

KATL - Atlanta/Hartsfield-J, GA, US

Issued at 0200 UTC 23 May 2018
Updated at 0311 UTC 23 May 2018
Potential Impact None Slight Moderate High
Time0252Z 23/04Z 23/05Z 23/06Z 23/07Z 23/08Z 23/09Z 23/10Z 23/11Z 23/12Z 23/13Z 23/14Z 23/15Z 23/16Z>>
Type OBS PRVL PRVL PRVL PRVL PRVL PRVL PRVL PRVL PRVL PRVL PRVL PRVL PRVL
VIS 10 >6 >6 >6 5 5 5 5 5 5 5 5 >6 >6
CIG 20 12 12 12 6 6 6 6 6 6 6 6 12 12
Cover OVC BKN BKN BKN OVC OVC OVC OVC OVC OVC OVC OVC BKN BKN
FltCat MVFR MVFR MVFR MVFR IFR IFR IFR IFR IFR IFR IFR IFR MVFR MVFR
WX -- -- -- -- BR BR BR BR BR BR BR BR VCSH VCSH
WDir 120 150 150 150 160 160 160 160 160 160 160 160 190 190
WSpd 5 4 4 4 4 4 4 4 4 4 4 4 4 4
WGst -- -- -- -- -- -- -- -- -- -- -- -- -- --

Raw TAF
KATL 230200Z 2302/2406 16005KT P6SM VCSH SCT008 BKN015 BKN050
  FM230400 15004KT P6SM SCT006 BKN012
  FM230700 16004KT 5SM BR OVC006
  FM231500 19004KT P6SM VCSH BKN012
  FM231800 20006KT 6SM -SHRA BKN025 OVC050


Raw METAR
KATL 230252Z 12005KT 10SM SCT006 BKN020 OVC060 21/19 A3009 RMK AO2 RAB21E40 SLP183 P0000 60011 T02110194 51018
KATL 230152Z 14005KT 10SM FEW008 SCT016 BKN085 OVC140 21/19 A3008 RMK AO2 SLP179 T02110189
KATL 230111Z 14005KT 10SM FEW008 SCT016 BKN060 OVC130 22/19 A3007 RMK AO2 T02170194
KATL 230052Z 17005KT 6SM BR SCT007 BKN014CB BKN045 OVC130 21/19 A3006 RMK AO2 LTG DSNT SE RAB09E52 TSB01E48 SLP173 TS DSIPTD CB N-NE MOV N CB DSNT SE P0011 T02110194
KATL 230049Z 20005KT 6SM -RA BR FEW007 SCT014 BKN036CB OVC130 21/19 A3006 RMK AO2 LTG DSNT SE RAB09 TSB01E48 TS DSIPTD CB N-NE MOV N CB DSNT SE P0011
KATL 230032Z 14007KT 1 1/2SM TSRA BR FEW007 BKN028CB BKN065 OVC130 21/19 A3006 RMK AO2 SFC VIS 3 RAB09 TSB01 OCNL LTGIC NE-OHD-SW TS NE-OHD-SW MOV N SHELF CLOUD NW-NE MOV N P0009 T02110194

METAR Board
Radar Display
Forecast Discussion

FOR SITUATIONAL AWARENESS. NOT TO BE USED FOR FLIGHT PLANNING PURPOSES.